createdAt,value
2018-07-13T00:02:12.147Z,13.33
2018-07-13T00:04:40.775Z,11.23
2018-07-13T00:07:09.278Z,12.77
2018-07-13T00:09:38.323Z,12.37
2018-07-13T00:12:07.166Z,11.30
2018-07-13T00:14:36.005Z,13.03
2018-07-13T00:17:04.215Z,11.03
2018-07-13T00:19:32.813Z,12.97
2018-07-13T00:22:01.538Z,11.70
2018-07-13T00:24:29.873Z,10.60
2018-07-13T00:26:58.348Z,11.87
2018-07-13T00:29:26.944Z,10.93
2018-07-13T00:31:55.655Z,10.60
2018-07-13T00:34:24.244Z,8.67
2018-07-13T00:36:52.861Z,11.73
2018-07-13T00:39:21.496Z,12.40
2018-07-13T00:41:50.008Z,14.20
2018-07-13T00:44:18.330Z,11.63
2018-07-13T00:46:46.708Z,11.37
2018-07-13T00:49:15.036Z,11.27
2018-07-13T00:51:43.410Z,13.00
2018-07-13T00:54:11.760Z,13.70
2018-07-13T00:56:40.232Z,11.97
2018-07-13T00:59:08.559Z,12.40
2018-07-13T01:01:36.927Z,10.93
2018-07-13T01:04:05.272Z,13.23
2018-07-13T01:06:33.622Z,13.87
2018-07-13T01:09:01.765Z,17.03
2018-07-13T01:11:30.111Z,11.43
2018-07-13T01:13:58.503Z,18.30
2018-07-13T01:16:26.841Z,17.97
2018-07-13T01:18:55.171Z,23.60
2018-07-13T01:21:23.560Z,28.73
2018-07-13T01:23:51.929Z,36.57
2018-07-13T01:26:20.292Z,43.17
2018-07-13T01:28:48.779Z,43.00
2018-07-13T01:31:17.152Z,39.97
2018-07-13T01:33:45.503Z,39.90
2018-07-13T01:36:13.885Z,37.60
2018-07-13T01:38:42.203Z,42.33
2018-07-13T01:41:10.599Z,43.90
2018-07-13T01:43:38.989Z,41.97
2018-07-13T01:46:07.360Z,35.50
2018-07-13T01:48:35.691Z,41.27
2018-07-13T01:51:04.095Z,38.80
2018-07-13T01:53:32.436Z,41.50
2018-07-13T01:56:00.832Z,44.23
2018-07-13T01:58:29.157Z,44.60
2018-07-13T02:00:57.523Z,48.63
2018-07-13T02:03:25.852Z,45.23
2018-07-13T02:05:54.215Z,45.37
2018-07-13T02:08:22.567Z,47.33
2018-07-13T02:10:50.928Z,51.37
2018-07-13T02:13:19.278Z,55.70
2018-07-13T02:15:47.636Z,51.70
2018-07-13T02:18:15.715Z,56.83
2018-07-13T02:20:44.092Z,51.93
2018-07-13T02:23:12.166Z,58.83
2018-07-13T02:25:40.262Z,56.03
2018-07-13T02:28:08.592Z,53.63
2018-07-13T02:30:36.980Z,52.57
2018-07-13T02:33:05.528Z,51.77
2018-07-13T02:35:33.871Z,49.50
2018-07-13T02:38:02.228Z,50.07
2018-07-13T02:40:30.545Z,44.67
2018-07-13T02:42:59.396Z,41.07
2018-07-13T02:45:27.746Z,37.87
2018-07-13T02:47:56.130Z,25.83
2018-07-13T02:50:24.477Z,22.20
2018-07-13T02:52:53.499Z,22.37
2018-07-13T02:55:21.870Z,21.03
2018-07-13T02:57:50.233Z,21.40
2018-07-13T03:00:18.588Z,21.53
2018-07-13T03:02:46.704Z,22.03
2018-07-13T03:05:15.060Z,19.33
2018-07-13T03:07:43.423Z,19.93
2018-07-13T03:10:11.487Z,22.17
2018-07-13T03:12:39.590Z,21.40
2018-07-13T03:15:07.957Z,24.17
2018-07-13T03:17:36.337Z,16.43
2018-07-13T03:20:04.725Z,20.07
2018-07-13T03:22:33.081Z,18.40
2018-07-13T03:25:01.151Z,19.40
2018-07-13T03:27:29.248Z,19.17
2018-07-13T03:29:57.580Z,21.93
2018-07-13T03:32:25.952Z,20.43
2018-07-13T03:34:54.304Z,22.57
2018-07-13T03:37:22.671Z,20.37
2018-07-13T03:39:51.008Z,18.40
2018-07-13T03:42:19.365Z,17.30
2018-07-13T03:44:47.700Z,17.03
2018-07-13T03:47:16.147Z,18.87
2018-07-13T03:49:44.472Z,18.17
2018-07-13T03:52:12.831Z,18.43
2018-07-13T03:54:41.200Z,16.63
2018-07-13T03:57:09.574Z,16.57
2018-07-13T03:59:37.642Z,17.93
2018-07-13T04:02:06.125Z,17.93
2018-07-13T04:04:34.471Z,15.97
2018-07-13T04:07:02.842Z,19.77
2018-07-13T04:09:31.183Z,17.70
2018-07-13T04:11:59.547Z,16.13
2018-07-13T04:14:27.611Z,18.50
2018-07-13T04:16:55.984Z,16.90
2018-07-13T04:19:24.319Z,19.07
2018-07-13T04:21:52.705Z,21.47
2018-07-13T04:24:21.079Z,19.17
2018-07-13T04:26:49.453Z,17.73
2018-07-13T04:29:17.861Z,19.57
2018-07-13T04:31:46.216Z,18.97
2018-07-13T04:34:14.627Z,17.17
2018-07-13T04:36:42.949Z,21.47
2018-07-13T04:39:12.665Z,19.87
2018-07-13T04:41:41.243Z,22.43
2018-07-13T04:44:09.727Z,21.40
2018-07-13T04:46:38.095Z,23.23
2018-07-13T04:49:06.532Z,22.23
2018-07-13T04:51:34.901Z,18.43
2018-07-13T04:54:03.405Z,19.73
2018-07-13T04:56:31.908Z,17.67
2018-07-13T04:59:00.336Z,18.20
2018-07-13T05:01:28.736Z,18.43
2018-07-13T05:03:57.180Z,19.30
2018-07-13T05:06:25.613Z,18.73
2018-07-13T05:08:54.025Z,19.40
2018-07-13T05:11:22.575Z,18.27
2018-07-13T05:13:51.139Z,20.57
2018-07-13T05:16:19.840Z,22.53
2018-07-13T05:18:48.198Z,21.20
2018-07-13T05:21:16.699Z,19.00
2018-07-13T05:23:45.084Z,22.40
2018-07-13T05:26:13.749Z,18.97
2018-07-13T05:28:42.163Z,19.90
2018-07-13T05:31:10.547Z,20.70
2018-07-13T05:33:38.965Z,23.17
2018-07-13T05:36:07.039Z,16.43
2018-07-13T05:38:35.498Z,16.17
2018-07-13T05:41:03.887Z,18.17
2018-07-13T05:43:32.312Z,18.27
2018-07-13T05:46:00.675Z,20.37
2018-07-13T05:48:30.734Z,16.27
2018-07-13T05:50:59.155Z,13.13
2018-07-13T05:53:27.559Z,17.40
2018-07-13T05:55:55.945Z,19.53
2018-07-13T05:58:24.331Z,15.07
2018-07-13T06:00:52.711Z,18.07
2018-07-13T06:03:21.091Z,17.70
2018-07-13T06:05:49.476Z,20.07
2018-07-13T06:08:17.888Z,17.03
2018-07-13T06:10:46.260Z,17.33
2018-07-13T06:13:14.740Z,19.83
2018-07-13T06:15:43.088Z,17.73
2018-07-13T06:18:11.452Z,16.20
2018-07-13T06:20:39.809Z,19.50
2018-07-13T06:23:08.199Z,16.30
2018-07-13T06:25:36.324Z,20.37
2018-07-13T06:28:04.683Z,17.40
2018-07-13T06:30:33.051Z,18.97
2018-07-13T06:33:01.416Z,17.00
2018-07-13T06:35:29.907Z,18.03
2018-07-13T06:37:58.272Z,17.83
2018-07-13T06:40:26.764Z,19.23
2018-07-13T06:42:55.132Z,17.80
2018-07-13T06:45:23.231Z,17.23
2018-07-13T06:47:51.613Z,17.80
2018-07-13T06:50:20.013Z,19.23
2018-07-13T06:52:48.368Z,16.97
2018-07-13T06:55:17.591Z,18.13
2018-07-13T06:57:57.252Z,21.33
2018-07-13T07:01:04.102Z,17.90
2018-07-13T07:03:34.435Z,18.90
2018-07-13T07:06:05.148Z,20.23
2018-07-13T07:08:33.544Z,17.63
2018-07-13T07:11:02.039Z,20.17
2018-07-13T07:13:35.600Z,19.17
2018-07-13T07:16:03.691Z,26.93
2018-07-13T07:18:32.047Z,16.27
2018-07-13T07:21:00.474Z,16.83
2018-07-13T07:23:29.607Z,15.87
2018-07-13T07:25:59.160Z,15.83
2018-07-13T07:28:27.615Z,17.80
2018-07-13T07:30:55.986Z,17.03
2018-07-13T07:33:24.416Z,20.90
2018-07-13T07:35:52.860Z,19.77
2018-07-13T07:38:21.312Z,17.70
2018-07-13T07:40:50.158Z,18.70
2018-07-13T07:43:19.201Z,18.73
2018-07-13T07:45:47.584Z,13.63
2018-07-13T07:48:15.928Z,19.40
2018-07-13T07:50:44.402Z,15.23
2018-07-13T07:53:12.807Z,15.70
2018-07-13T07:55:41.205Z,15.60
2018-07-13T07:58:09.547Z,18.20
2018-07-13T08:00:37.928Z,16.73
2018-07-13T08:03:06.565Z,14.67
2018-07-13T08:05:34.638Z,14.37
2018-07-13T08:08:02.709Z,15.30
2018-07-13T08:10:31.067Z,16.50
2018-07-13T08:12:59.784Z,13.17
2018-07-13T08:15:28.144Z,14.20
2018-07-13T08:17:56.268Z,14.17
2018-07-13T08:20:26.576Z,14.00
2018-07-13T08:22:57.234Z,11.70
2018-07-13T08:25:26.737Z,10.97
2018-07-13T08:27:58.193Z,15.27
2018-07-13T08:30:33.980Z,12.90
2018-07-13T08:33:02.356Z,13.13
2018-07-13T08:35:30.739Z,14.53
2018-07-13T08:37:59.133Z,16.20
2018-07-13T08:40:27.540Z,12.07
2018-07-13T08:42:55.910Z,15.17
2018-07-13T08:45:24.466Z,10.57
2018-07-13T08:47:52.847Z,12.63
2018-07-13T08:50:21.232Z,14.47
2018-07-13T08:52:49.615Z,11.97
2018-07-13T08:55:17.730Z,11.30
2018-07-13T08:57:47.469Z,13.27
2018-07-13T09:00:15.870Z,11.17
2018-07-13T09:02:44.226Z,15.23
2018-07-13T09:05:12.588Z,11.67
2018-07-13T09:07:41.013Z,15.17
2018-07-13T09:10:12.272Z,12.70
2018-07-13T09:12:40.687Z,14.27
2018-07-13T09:15:10.353Z,13.60
2018-07-13T09:17:38.744Z,12.40
2018-07-13T09:20:07.491Z,14.13
2018-07-13T09:22:35.884Z,14.20
2018-07-13T09:25:04.290Z,9.53
2018-07-13T09:27:32.688Z,11.13
2018-07-13T09:30:01.044Z,11.73
2018-07-13T09:32:29.462Z,11.07
2018-07-13T09:34:57.808Z,11.83
2018-07-13T09:37:25.888Z,13.30
2018-07-13T09:39:53.936Z,13.00
2018-07-13T09:42:22.312Z,10.77
2018-07-13T09:44:50.651Z,11.37
2018-07-13T09:47:19.009Z,12.70
2018-07-13T09:49:47.344Z,12.50
2018-07-13T09:52:15.731Z,12.80
2018-07-13T09:54:44.094Z,11.13
2018-07-13T09:57:12.500Z,13.23
2018-07-13T09:59:40.554Z,10.67
2018-07-13T10:02:08.920Z,10.40
2018-07-13T10:04:37.273Z,10.93
2018-07-13T10:07:06.036Z,11.73
2018-07-13T10:09:34.364Z,13.90
2018-07-13T10:12:02.832Z,10.90
2018-07-13T10:14:31.191Z,13.57
2018-07-13T10:16:59.547Z,14.33
2018-07-13T10:19:27.631Z,10.90
2018-07-13T10:21:56.336Z,14.33
2018-07-13T10:24:24.733Z,12.50
2018-07-13T10:26:54.184Z,12.47
2018-07-13T10:29:29.069Z,15.57
2018-07-13T10:31:57.437Z,14.83
2018-07-13T10:34:25.819Z,15.20
2018-07-13T10:37:00.264Z,11.47
2018-07-13T10:39:28.628Z,11.70
2018-07-13T10:41:56.976Z,9.60
2018-07-13T10:44:25.350Z,10.57
2018-07-13T10:46:53.484Z,10.30
2018-07-13T10:49:21.839Z,13.53
2018-07-13T10:51:50.770Z,12.77
2018-07-13T10:54:19.211Z,11.53
2018-07-13T10:56:47.540Z,9.67
2018-07-13T10:59:15.904Z,10.40
2018-07-13T11:01:44.299Z,9.60
2018-07-13T11:04:13.780Z,9.20
2018-07-13T11:06:42.707Z,10.23
2018-07-13T11:09:11.241Z,11.23
2018-07-13T11:11:39.576Z,11.73
2018-07-13T11:14:07.818Z,9.97
2018-07-13T11:16:36.149Z,10.73
2018-07-13T11:19:04.512Z,9.30
2018-07-13T11:21:32.945Z,10.07
2018-07-13T11:24:02.099Z,10.67
2018-07-13T11:26:30.532Z,10.07
2018-07-13T11:28:58.930Z,11.77
2018-07-13T11:31:27.266Z,10.83
2018-07-13T11:33:55.835Z,10.70
2018-07-13T11:36:24.228Z,9.03
2018-07-13T11:38:52.606Z,9.40
2018-07-13T11:41:20.941Z,11.60
2018-07-13T11:43:49.318Z,11.07
2018-07-13T11:46:17.641Z,9.27
2018-07-13T11:48:45.992Z,8.23
2018-07-13T11:51:14.323Z,9.70
2018-07-13T11:53:42.775Z,7.90
2018-07-13T11:56:11.135Z,9.90
2018-07-13T11:58:39.506Z,7.37
2018-07-13T12:01:07.758Z,12.20
2018-07-13T12:03:36.113Z,9.97
2018-07-13T12:06:04.468Z,9.47
2018-07-13T12:08:32.837Z,11.90
2018-07-13T12:11:00.905Z,9.80
2018-07-13T12:13:28.979Z,7.37
2018-07-13T12:15:57.030Z,10.07
2018-07-13T12:18:25.385Z,8.63
2018-07-13T12:20:53.719Z,9.33
2018-07-13T12:23:22.040Z,8.17
2018-07-13T12:25:50.392Z,7.93
2018-07-13T12:28:18.723Z,10.83
2018-07-13T12:30:47.111Z,11.13
2018-07-13T12:33:15.554Z,6.93
2018-07-13T12:35:43.699Z,7.47
2018-07-13T12:38:12.246Z,9.27
2018-07-13T12:40:40.344Z,10.90
2018-07-13T12:43:08.699Z,12.63
2018-07-13T12:45:37.049Z,10.07
2018-07-13T12:48:05.495Z,9.97
2018-07-13T12:50:33.843Z,7.33
2018-07-13T12:53:02.176Z,7.90
2018-07-13T12:55:30.679Z,8.27
2018-07-13T12:57:59.082Z,8.00
2018-07-13T13:00:27.205Z,8.73
2018-07-13T13:02:55.548Z,10.47
2018-07-13T13:05:23.914Z,8.87
2018-07-13T13:07:51.963Z,9.77
2018-07-13T13:10:20.331Z,8.43
2018-07-13T13:12:48.664Z,10.80
2018-07-13T13:15:17.067Z,8.03
2018-07-13T13:17:45.385Z,9.00
2018-07-13T13:20:13.775Z,8.40
2018-07-13T13:22:42.107Z,8.83
2018-07-13T13:25:10.476Z,10.27
2018-07-13T13:27:38.800Z,9.43
2018-07-13T13:30:07.273Z,11.60
2018-07-13T13:32:35.600Z,9.07
2018-07-13T13:35:03.968Z,10.57
2018-07-13T13:37:32.023Z,9.37
2018-07-13T13:40:00.384Z,10.37
2018-07-13T13:42:28.715Z,8.37
2018-07-13T13:44:57.071Z,11.23
2018-07-13T13:47:25.140Z,10.40
2018-07-13T13:49:53.240Z,8.20
2018-07-13T13:52:21.578Z,10.07
2018-07-13T13:54:49.952Z,8.90
2018-07-13T13:57:18.312Z,9.97
2018-07-13T13:59:46.729Z,8.13
2018-07-13T14:02:15.059Z,9.50
2018-07-13T14:04:43.463Z,7.80
2018-07-13T14:07:11.827Z,7.00
2018-07-13T14:09:40.185Z,6.57
2018-07-13T14:12:08.613Z,8.10
2018-07-13T14:14:37.025Z,5.87
2018-07-13T14:17:05.319Z,7.87
2018-07-13T14:19:33.656Z,9.28
2018-07-13T14:22:02.027Z,7.10
2018-07-13T14:24:30.370Z,4.67
2018-07-13T14:26:58.732Z,6.13
2018-07-13T14:29:27.075Z,6.53
2018-07-13T14:31:55.460Z,6.55
2018-07-13T14:34:23.823Z,5.20
2018-07-13T14:36:52.188Z,7.30
2018-07-13T14:39:20.529Z,4.97
2018-07-13T14:41:48.905Z,5.03
2018-07-13T14:44:17.260Z,5.28
2018-07-13T14:46:45.440Z,7.25
2018-07-13T14:49:13.797Z,7.55
2018-07-13T14:51:42.169Z,4.72
2018-07-13T14:54:10.542Z,6.78
2018-07-13T14:56:38.973Z,7.42
2018-07-13T14:59:07.311Z,6.00
2018-07-13T15:01:35.695Z,5.47
2018-07-13T15:04:04.088Z,6.22
2018-07-13T15:06:32.602Z,6.45
2018-07-13T15:09:00.784Z,5.55
2018-07-13T15:11:29.136Z,6.30
2018-07-13T15:13:57.199Z,4.92
2018-07-13T15:16:25.554Z,7.03
2018-07-13T15:18:53.875Z,5.42
2018-07-13T15:21:22.223Z,4.60
2018-07-13T15:23:50.556Z,6.90
2018-07-13T15:26:19.013Z,7.30
2018-07-13T15:28:47.336Z,6.28
2018-07-13T15:31:15.698Z,3.67
2018-07-13T15:33:44.020Z,4.03
2018-07-13T15:36:12.514Z,3.50
2018-07-13T15:38:40.856Z,4.90
2018-07-13T15:41:09.272Z,5.72
2018-07-13T15:43:37.671Z,5.00
2018-07-13T15:46:06.135Z,4.85
2018-07-13T15:48:34.466Z,4.03
2018-07-13T15:51:02.824Z,4.50
2018-07-13T15:53:31.160Z,4.60
2018-07-13T15:55:59.988Z,5.87
2018-07-13T15:58:29.282Z,3.85
2018-07-13T16:00:57.660Z,7.37
2018-07-13T16:03:25.734Z,4.70
2018-07-13T16:05:54.400Z,3.75
2018-07-13T16:08:22.735Z,4.50
2018-07-13T16:10:51.448Z,4.37
2018-07-13T16:13:19.747Z,5.67
2018-07-13T16:15:48.088Z,4.15
2018-07-13T16:18:16.444Z,3.35
2018-07-13T16:20:44.787Z,3.62
2018-07-13T16:23:13.165Z,2.83
2018-07-13T16:25:41.505Z,3.75
2018-07-13T16:28:09.930Z,3.60
2018-07-13T16:30:38.333Z,5.03
2018-07-13T16:33:07.334Z,5.97
2018-07-13T16:35:35.726Z,4.35
2018-07-13T16:38:04.144Z,4.87
2018-07-13T16:40:32.496Z,3.30
2018-07-13T16:43:00.873Z,5.05
2018-07-13T16:45:29.208Z,5.53
2018-07-13T16:47:57.296Z,6.87
2018-07-13T16:50:25.680Z,5.00
2018-07-13T16:52:54.029Z,4.25
2018-07-13T16:55:22.619Z,5.25
2018-07-13T16:57:50.971Z,4.10
2018-07-13T17:00:19.307Z,3.30
2018-07-13T17:02:47.660Z,4.08
2018-07-13T17:05:15.955Z,5.87
2018-07-13T17:07:44.333Z,4.20
2018-07-13T17:10:12.794Z,5.17
2018-07-13T17:12:41.164Z,5.70
2018-07-13T17:15:09.496Z,3.77
2018-07-13T17:17:37.871Z,5.12
2018-07-13T17:20:06.289Z,6.15
2018-07-13T17:22:34.608Z,5.17
2018-07-13T17:25:02.952Z,5.30
2018-07-13T17:27:31.323Z,5.87
2018-07-13T17:29:59.660Z,5.53
2018-07-13T17:32:28.009Z,7.30
2018-07-13T17:34:56.343Z,3.90
2018-07-13T17:37:24.726Z,6.12
2018-07-13T17:39:53.199Z,4.65
2018-07-13T17:42:21.572Z,5.22
2018-07-13T17:44:49.899Z,7.47
2018-07-13T17:47:18.251Z,3.95
2018-07-13T17:49:46.571Z,6.40
2018-07-13T17:52:14.918Z,5.10
2018-07-13T17:54:43.272Z,5.08
2018-07-13T17:57:11.592Z,4.85
2018-07-13T17:59:39.943Z,6.53
2018-07-13T18:02:08.301Z,4.72
2018-07-13T18:04:36.663Z,5.92
2018-07-13T18:07:05.077Z,6.15
2018-07-13T18:09:33.448Z,5.20
2018-07-13T18:12:01.818Z,6.67
2018-07-13T18:14:30.187Z,8.23
2018-07-13T18:16:58.526Z,5.95
2018-07-13T18:19:26.896Z,6.33
2018-07-13T18:21:54.943Z,5.20
2018-07-13T18:24:23.291Z,6.83
2018-07-13T18:26:51.612Z,6.83
2018-07-13T18:29:19.959Z,6.28
2018-07-13T18:31:48.313Z,9.08
2018-07-13T18:34:16.408Z,6.67
2018-07-13T18:36:44.740Z,6.65
2018-07-13T18:39:13.087Z,6.92
2018-07-13T18:41:41.439Z,6.62
2018-07-13T18:44:09.807Z,6.72
2018-07-13T18:46:38.160Z,7.22
2018-07-13T18:49:06.559Z,6.75
2018-07-13T18:51:34.652Z,8.50
2018-07-13T18:54:03.089Z,6.00
2018-07-13T18:56:31.455Z,7.55
2018-07-13T18:58:59.813Z,7.50
2018-07-13T19:01:28.143Z,6.58
2018-07-13T19:03:56.515Z,5.97
2018-07-13T19:06:24.855Z,6.45
2018-07-13T19:08:53.215Z,6.65
2018-07-13T19:11:21.563Z,8.07
2018-07-13T19:13:49.980Z,7.80
2018-07-13T19:16:18.299Z,7.47
2018-07-13T19:18:46.690Z,9.10
2018-07-13T19:21:15.008Z,7.00
2018-07-13T19:23:43.373Z,8.27
2018-07-13T19:26:11.431Z,8.13
2018-07-13T19:28:39.779Z,8.13
2018-07-13T19:31:08.125Z,6.73
2018-07-13T19:33:36.554Z,7.87
2018-07-13T19:36:04.877Z,8.23
2018-07-13T19:38:32.951Z,9.27
2018-07-13T19:41:01.300Z,9.63
2018-07-13T19:43:29.658Z,8.30
2018-07-13T19:45:58.029Z,8.13
2018-07-13T19:48:26.396Z,7.33
2018-07-13T19:50:54.720Z,8.57
2018-07-13T19:53:23.059Z,6.13
2018-07-13T19:55:51.460Z,7.73
2018-07-13T19:58:19.801Z,7.23
2018-07-13T20:00:48.270Z,8.00
2018-07-13T20:03:16.949Z,9.23
2018-07-13T20:05:46.291Z,7.60
2018-07-13T20:08:14.671Z,7.73
2018-07-13T20:10:43.029Z,8.83
2018-07-13T20:13:11.392Z,8.00
2018-07-13T20:15:39.495Z,8.60
2018-07-13T20:18:07.840Z,6.50
2018-07-13T20:20:36.199Z,9.00
2018-07-13T20:23:04.543Z,6.90
2018-07-13T20:25:32.911Z,6.90
2018-07-13T20:28:01.264Z,7.73
2018-07-13T20:30:29.624Z,8.27
2018-07-13T20:32:57.685Z,8.13
2018-07-13T20:35:26.082Z,6.30
2018-07-13T20:37:54.348Z,7.13
2018-07-13T20:40:22.713Z,9.18
2018-07-13T20:42:51.059Z,7.73
2018-07-13T20:45:19.416Z,8.63
2018-07-13T20:47:47.744Z,6.87
2018-07-13T20:50:16.112Z,7.93
2018-07-13T20:52:44.471Z,9.73
2018-07-13T20:55:12.859Z,8.90
2018-07-13T20:57:41.205Z,7.03
2018-07-13T21:00:09.585Z,8.93
2018-07-13T21:02:37.919Z,9.30
2018-07-13T21:05:06.293Z,7.23
2018-07-13T21:07:34.622Z,6.27
2018-07-13T21:10:02.973Z,6.10
2018-07-13T21:12:31.323Z,6.80
2018-07-13T21:14:59.747Z,6.50
2018-07-13T21:17:27.815Z,6.87
2018-07-13T21:19:56.246Z,7.00
2018-07-13T21:22:24.555Z,6.83
2018-07-13T21:24:53.032Z,7.07
2018-07-13T21:27:21.396Z,6.87
2018-07-13T21:29:49.823Z,8.03
2018-07-13T21:32:17.899Z,5.07
2018-07-13T21:34:46.074Z,8.07
2018-07-13T21:37:14.194Z,6.00
2018-07-13T21:39:42.558Z,5.53
2018-07-13T21:42:10.920Z,6.57
2018-07-13T21:44:39.359Z,6.77
2018-07-13T21:47:07.716Z,4.93
2018-07-13T21:49:36.170Z,5.83
2018-07-13T21:52:04.615Z,5.83
2018-07-13T21:54:33.002Z,6.20
2018-07-13T21:57:01.397Z,7.13
2018-07-13T21:59:29.767Z,6.17
2018-07-13T22:01:57.867Z,5.83
2018-07-13T22:04:26.275Z,6.10
2018-07-13T22:06:54.635Z,10.50
2018-07-13T22:09:22.947Z,6.90
2018-07-13T22:11:51.056Z,8.17
2018-07-13T22:14:19.383Z,7.03
2018-07-13T22:16:47.740Z,7.90
2018-07-13T22:19:16.112Z,5.50
2018-07-13T22:21:44.482Z,5.87
2018-07-13T22:24:12.807Z,6.80
2018-07-13T22:26:41.160Z,8.73
2018-07-13T22:29:09.482Z,9.97
2018-07-13T22:31:37.831Z,6.33
2018-07-13T22:34:06.439Z,6.03
2018-07-13T22:36:34.802Z,5.80
2018-07-13T22:39:03.831Z,5.57
2018-07-13T22:41:32.187Z,6.60
2018-07-13T22:44:00.526Z,5.80
2018-07-13T22:46:28.891Z,7.20
2018-07-13T22:48:56.934Z,7.37
2018-07-13T22:51:25.294Z,6.80
2018-07-13T22:53:53.619Z,6.90
2018-07-13T22:56:21.735Z,6.70
2018-07-13T22:58:50.100Z,5.87
2018-07-13T23:01:18.503Z,8.23
2018-07-13T23:03:46.839Z,8.50
2018-07-13T23:06:15.194Z,6.93
2018-07-13T23:08:43.250Z,5.87
2018-07-13T23:11:11.608Z,7.77
2018-07-13T23:13:39.955Z,6.57
2018-07-13T23:16:08.309Z,8.00
2018-07-13T23:18:36.363Z,7.63
2018-07-13T23:21:04.727Z,6.33
2018-07-13T23:23:33.072Z,5.83
2018-07-13T23:26:01.436Z,5.17
2018-07-13T23:28:29.771Z,8.33
2018-07-13T23:30:58.137Z,9.50
2018-07-13T23:33:26.465Z,6.87
2018-07-13T23:35:55.684Z,6.03
2018-07-13T23:38:24.063Z,6.27
2018-07-13T23:40:52.404Z,7.07
2018-07-13T23:43:20.505Z,7.80
2018-07-13T23:45:48.840Z,7.77
2018-07-13T23:48:17.213Z,6.67
2018-07-13T23:50:45.579Z,6.23
2018-07-13T23:53:13.939Z,8.73
2018-07-13T23:55:42.311Z,7.40
2018-07-13T23:58:10.671Z,7.00
